sensor_id;sensor_type;location;lat;lon;timestamp;temperature;humidity
69225;DHT22;56333;51.306;17.056;2022-08-01T00:06:15;18.02;70.07
69225;DHT22;56333;51.306;17.056;2022-08-01T00:07:52;18.01;69.05
69225;DHT22;56333;51.306;17.056;2022-08-01T00:15:44;18.01;69.82
69225;DHT22;56333;51.306;17.056;2022-08-01T00:19:48;18.05;69.70
69225;DHT22;56333;51.306;17.056;2022-08-01T00:21:44;18.03;69.50
69225;DHT22;56333;51.306;17.056;2022-08-01T00:25:24;17.98;70.13
69225;DHT22;56333;51.306;17.056;2022-08-01T00:37:24;17.97;71.60
69225;DHT22;56333;51.306;17.056;2022-08-01T00:40:46;18.00;70.38
69225;DHT22;56333;51.306;17.056;2022-08-01T00:44:50;17.97;70.38
69225;DHT22;56333;51.306;17.056;2022-08-01T00:48:54;17.90;71.30
69225;DHT22;56333;51.306;17.056;2022-08-01T00:51:04;17.87;70.80
69225;DHT22;56333;51.306;17.056;2022-08-01T00:53:00;17.84;71.03
69225;DHT22;56333;51.306;17.056;2022-08-01T00:54:55;17.81;71.82
69225;DHT22;56333;51.306;17.056;2022-08-01T00:56:36;17.80;71.28
69225;DHT22;56333;51.306;17.056;2022-08-01T01:02:10;17.71;71.68
69225;DHT22;56333;51.306;17.056;2022-08-01T01:04:19;17.67;71.53
69225;DHT22;56333;51.306;17.056;2022-08-01T01:05:51;17.64;71.40
69225;DHT22;56333;51.306;17.056;2022-08-01T01:16:24;17.60;72.22
69225;DHT22;56333;51.306;17.056;2022-08-01T01:19:52;17.60;72.78
69225;DHT22;56333;51.306;17.056;2022-08-01T01:30:57;17.53;72.28
69225;DHT22;56333;51.306;17.056;2022-08-01T01:32:53;17.53;72.78
69225;DHT22;56333;51.306;17.056;2022-08-01T01:34:51;17.55;72.80
69225;DHT22;56333;51.306;17.056;2022-08-01T01:37:06;17.57;73.20
69225;DHT22;56333;51.306;17.056;2022-08-01T01:38:36;17.58;72.82
69225;DHT22;56333;51.306;17.056;2022-08-01T01:40:05;17.58;72.82
69225;DHT22;56333;51.306;17.056;2022-08-01T01:41:47;17.58;72.45
69225;DHT22;56333;51.306;17.056;2022-08-01T01:47:29;17.53;72.53
69225;DHT22;56333;51.306;17.056;2022-08-01T01:55:39;17.56;73.90
69225;DHT22;56333;51.306;17.056;2022-08-01T01:57:36;17.56;73.38
69225;DHT22;56333;51.306;17.056;2022-08-01T01:59:47;17.57;72.90
69225;DHT22;56333;51.306;17.056;2022-08-01T02:03:52;17.56;72.70
69225;DHT22;56333;51.306;17.056;2022-08-01T02:07:45;17.57;73.63
69225;DHT22;56333;51.306;17.056;2022-08-01T02:11:37;17.62;73.43
69225;DHT22;56333;51.306;17.056;2022-08-01T02:17:27;17.68;72.78
69225;DHT22;56333;51.306;17.056;2022-08-01T02:20:50;17.68;72.38
69225;DHT22;56333;51.306;17.056;2022-08-01T02:25:25;17.67;72.88
69225;DHT22;56333;51.306;17.056;2022-08-01T02:27:07;17.69;72.85
69225;DHT22;56333;51.306;17.056;2022-08-01T02:33:10;17.68;73.53
69225;DHT22;56333;51.306;17.056;2022-08-01T02:34:55;17.67;72.82
69225;DHT22;56333;51.306;17.056;2022-08-01T02:38:36;17.69;72.35
69225;DHT22;56333;51.306;17.056;2022-08-01T02:48:58;17.69;72.93
69225;DHT22;56333;51.306;17.056;2022-08-01T02:50:27;17.70;72.55
69225;DHT22;56333;51.306;17.056;2022-08-01T02:58:11;17.64;72.80
69225;DHT22;56333;51.306;17.056;2022-08-01T03:00:09;17.66;72.82
69225;DHT22;56333;51.306;17.056;2022-08-01T03:06:10;17.65;72.10
69225;DHT22;56333;51.306;17.056;2022-08-01T03:08:21;17.62;72.07
69225;DHT22;56333;51.306;17.056;2022-08-01T03:10:07;17.60;72.18
69225;DHT22;56333;51.306;17.056;2022-08-01T03:12:18;17.57;72.05
69225;DHT22;56333;51.306;17.056;2022-08-01T03:14:29;17.58;72.25
69225;DHT22;56333;51.306;17.056;2022-08-01T03:20:59;17.67;71.93
69225;DHT22;56333;51.306;17.056;2022-08-01T03:22:56;17.67;72.13
69225;DHT22;56333;51.306;17.056;2022-08-01T03:25:07;17.70;71.43
69225;DHT22;56333;51.306;17.056;2022-08-01T03:29:15;17.71;71.07
69225;DHT22;56333;51.306;17.056;2022-08-01T03:33:35;17.75;70.70
69225;DHT22;56333;51.306;17.056;2022-08-01T03:48:14;17.76;70.90
69225;DHT22;56333;51.306;17.056;2022-08-01T03:53:35;17.75;71.07
69225;DHT22;56333;51.306;17.056;2022-08-01T03:57:41;17.76;70.35
69225;DHT22;56333;51.306;17.056;2022-08-01T04:01:49;17.75;70.45
69225;DHT22;56333;51.306;17.056;2022-08-01T04:10:39;17.74;71.10
69225;DHT22;56333;51.306;17.056;2022-08-01T04:17:24;17.68;70.88
69225;DHT22;56333;51.306;17.056;2022-08-01T04:21:42;17.62;71.03
69225;DHT22;56333;51.306;17.056;2022-08-01T04:23:25;17.61;70.95
69225;DHT22;56333;51.306;17.056;2022-08-01T04:31:11;17.64;71.30
69225;DHT22;56333;51.306;17.056;2022-08-01T04:33:09;17.63;71.32
69225;DHT22;56333;51.306;17.056;2022-08-01T04:34:48;17.62;71.28
69225;DHT22;56333;51.306;17.056;2022-08-01T04:39:08;17.58;70.93
69225;DHT22;56333;51.306;17.056;2022-08-01T04:42:45;17.54;70.72
69225;DHT22;56333;51.306;17.056;2022-08-01T04:47:06;17.52;71.13
69225;DHT22;56333;51.306;17.056;2022-08-01T04:49:02;17.58;71.32
69225;DHT22;56333;51.306;17.056;2022-08-01T04:53:51;17.68;71.63
69225;DHT22;56333;51.306;17.056;2022-08-01T04:57:43;17.72;71.28
69225;DHT22;56333;51.306;17.056;2022-08-01T04:59:09;17.72;71.30
69225;DHT22;56333;51.306;17.056;2022-08-01T05:00:50;17.70;71.07
69225;DHT22;56333;51.306;17.056;2022-08-01T05:02:16;17.68;71.20
69225;DHT22;56333;51.306;17.056;2022-08-01T05:03:55;17.67;71.57
69225;DHT22;56333;51.306;17.056;2022-08-01T05:05:23;17.67;71.32
69225;DHT22;56333;51.306;17.056;2022-08-01T05:07:03;17.67;71.72
69225;DHT22;56333;51.306;17.056;2022-08-01T05:08:41;17.70;71.78
69225;DHT22;56333;51.306;17.056;2022-08-01T05:12:02;17.75;70.85
69225;DHT22;56333;51.306;17.056;2022-08-01T05:13:28;17.76;71.18
69225;DHT22;56333;51.306;17.056;2022-08-01T05:14:53;17.79;71.40
69225;DHT22;56333;51.306;17.056;2022-08-01T05:18:27;17.85;71.50
69225;DHT22;56333;51.306;17.056;2022-08-01T05:20:06;17.86;71.35
69225;DHT22;56333;51.306;17.056;2022-08-01T05:27:30;18.07;71.47
69225;DHT22;56333;51.306;17.056;2022-08-01T05:28:58;18.08;71.38
69225;DHT22;56333;51.306;17.056;2022-08-01T05:32:05;18.17;71.40
69225;DHT22;56333;51.306;17.056;2022-08-01T05:33:31;18.19;71.38
69225;DHT22;56333;51.306;17.056;2022-08-01T05:35:10;18.21;71.07
69225;DHT22;56333;51.306;17.056;2022-08-01T05:36:34;18.21;70.95
69225;DHT22;56333;51.306;17.056;2022-08-01T05:38:58;18.25;71.28
69225;DHT22;56333;51.306;17.056;2022-08-01T05:40:40;18.30;71.15
69225;DHT22;56333;51.306;17.056;2022-08-01T05:42:04;18.36;71.18
69225;DHT22;56333;51.306;17.056;2022-08-01T05:45:24;18.40;71.25
69225;DHT22;56333;51.306;17.056;2022-08-01T05:47:03;18.43;71.18
69225;DHT22;56333;51.306;17.056;2022-08-01T05:48:27;18.46;70.97
69225;DHT22;56333;51.306;17.056;2022-08-01T05:52:16;18.54;71.53
69225;DHT22;56333;51.306;17.056;2022-08-01T05:53:41;18.58;71.05
69225;DHT22;56333;51.306;17.056;2022-08-01T05:55:07;18.64;71.25
69225;DHT22;56333;51.306;17.056;2022-08-01T05:56:46;18.69;71.38
69225;DHT22;56333;51.306;17.056;2022-08-01T05:58:56;18.77;71.55
69225;DHT22;56333;51.306;17.056;2022-08-01T06:02:30;18.99;71.32
69225;DHT22;56333;51.306;17.056;2022-08-01T06:06:14;19.13;71.13
69225;DHT22;56333;51.306;17.056;2022-08-01T06:07:54;19.17;70.63
69225;DHT22;56333;51.306;17.056;2022-08-01T06:09:19;19.25;70.50
69225;DHT22;56333;51.306;17.056;2022-08-01T06:10:46;19.28;70.53
69225;DHT22;56333;51.306;17.056;2022-08-01T06:14:22;19.43;70.85
69225;DHT22;56333;51.306;17.056;2022-08-01T06:16:00;19.50;70.63
69225;DHT22;56333;51.306;17.056;2022-08-01T06:19:18;19.62;70.13
69225;DHT22;56333;51.306;17.056;2022-08-01T06:20:43;19.66;70.20
69225;DHT22;56333;51.306;17.056;2022-08-01T06:24:04;19.80;69.68
69225;DHT22;56333;51.306;17.056;2022-08-01T06:25:29;19.87;69.68
69225;DHT22;56333;51.306;17.056;2022-08-01T06:27:25;20.00;69.55
69225;DHT22;56333;51.306;17.056;2022-08-01T06:29:04;20.10;69.25
69225;DHT22;56333;51.306;17.056;2022-08-01T06:30:28;20.17;69.05
69225;DHT22;56333;51.306;17.056;2022-08-01T06:36:09;20.44;67.80
69225;DHT22;56333;51.306;17.056;2022-08-01T06:37:51;20.50;67.63
69225;DHT22;56333;51.306;17.056;2022-08-01T06:40:02;20.57;67.82
69225;DHT22;56333;51.306;17.056;2022-08-01T06:41:26;20.64;67.78
69225;DHT22;56333;51.306;17.056;2022-08-01T06:43:10;20.70;67.57
69225;DHT22;56333;51.306;17.056;2022-08-01T06:44:35;20.73;67.28
69225;DHT22;56333;51.306;17.056;2022-08-01T06:46:13;20.73;66.75
69225;DHT22;56333;51.306;17.056;2022-08-01T06:47:55;20.82;67.13
69225;DHT22;56333;51.306;17.056;2022-08-01T06:50:02;20.90;67.20
69225;DHT22;56333;51.306;17.056;2022-08-01T06:51:30;21.01;67.10
69225;DHT22;56333;51.306;17.056;2022-08-01T06:57:13;21.44;66.28
69225;DHT22;56333;51.306;17.056;2022-08-01T06:58:54;21.58;65.63
69225;DHT22;56333;51.306;17.056;2022-08-01T07:00:36;21.71;65.18
69225;DHT22;56333;51.306;17.056;2022-08-01T07:02:18;21.88;65.90
69225;DHT22;56333;51.306;17.056;2022-08-01T07:04:13;21.96;64.50
69225;DHT22;56333;51.306;17.056;2022-08-01T07:07:47;22.20;65.07
69225;DHT22;56333;51.306;17.056;2022-08-01T07:11:52;22.64;64.60
69225;DHT22;56333;51.306;17.056;2022-08-01T07:13:19;22.86;63.50
69225;DHT22;56333;51.306;17.056;2022-08-01T07:17:24;23.05;61.28
69225;DHT22;56333;51.306;17.056;2022-08-01T07:28:12;23.35;62.00
69225;DHT22;56333;51.306;17.056;2022-08-01T07:31:48;23.78;61.35
69225;DHT22;56333;51.306;17.056;2022-08-01T07:36:37;24.62;59.40
69225;DHT22;56333;51.306;17.056;2022-08-01T07:38:18;24.77;58.75
69225;DHT22;56333;51.306;17.056;2022-08-01T07:40:28;24.85;58.85
69225;DHT22;56333;51.306;17.056;2022-08-01T07:41:57;24.87;57.05
69225;DHT22;56333;51.306;17.056;2022-08-01T07:43:36;24.78;56.25
69225;DHT22;56333;51.306;17.056;2022-08-01T07:45:14;24.91;57.33
69225;DHT22;56333;51.306;17.056;2022-08-01T07:51:30;24.83;55.42
69225;DHT22;56333;51.306;17.056;2022-08-01T07:52:54;24.80;56.10
69225;DHT22;56333;51.306;17.056;2022-08-01T07:56:13;24.73;56.42
69225;DHT22;56333;51.306;17.056;2022-08-01T08:02:28;24.49;57.22
69225;DHT22;56333;51.306;17.056;2022-08-01T08:03:53;24.50;59.17
69225;DHT22;56333;51.306;17.056;2022-08-01T08:05:18;24.44;57.97
69225;DHT22;56333;51.306;17.056;2022-08-01T08:07:28;24.41;58.65
69225;DHT22;56333;51.306;17.056;2022-08-01T08:13:15;24.08;57.70
69225;DHT22;56333;51.306;17.056;2022-08-01T08:14:54;24.10;58.38
69225;DHT22;56333;51.306;17.056;2022-08-01T08:16:50;24.10;58.60
69225;DHT22;56333;51.306;17.056;2022-08-01T08:18:15;24.06;58.30
69225;DHT22;56333;51.306;17.056;2022-08-01T08:21:47;24.00;59.00
69225;DHT22;56333;51.306;17.056;2022-08-01T08:23:14;23.94;58.70
69225;DHT22;56333;51.306;17.056;2022-08-01T08:25:09;23.86;58.53
69225;DHT22;56333;51.306;17.056;2022-08-01T08:34:35;23.59;60.13
69225;DHT22;56333;51.306;17.056;2022-08-01T08:36:14;23.53;60.17
69225;DHT22;56333;51.306;17.056;2022-08-01T08:37:55;23.33;60.60
69225;DHT22;56333;51.306;17.056;2022-08-01T08:39:34;23.38;60.55
69225;DHT22;56333;51.306;17.056;2022-08-01T08:41:01;23.30;60.38
69225;DHT22;56333;51.306;17.056;2022-08-01T08:47:55;23.14;61.20
69225;DHT22;56333;51.306;17.056;2022-08-01T08:51:33;23.06;61.50
69225;DHT22;56333;51.306;17.056;2022-08-01T08:53:00;23.03;61.97
69225;DHT22;56333;51.306;17.056;2022-08-01T08:58:45;23.12;62.03
69225;DHT22;56333;51.306;17.056;2022-08-01T09:04:31;23.27;62.40
69225;DHT22;56333;51.306;17.056;2022-08-01T09:12:08;23.72;64.68
69225;DHT22;56333;51.306;17.056;2022-08-01T09:13:36;23.93;63.58
69225;DHT22;56333;51.306;17.056;2022-08-01T09:17:10;24.28;60.25
69225;DHT22;56333;51.306;17.056;2022-08-01T09:20:46;24.46;59.50
69225;DHT22;56333;51.306;17.056;2022-08-01T09:22:28;24.49;58.22
69225;DHT22;56333;51.306;17.056;2022-08-01T09:23:59;24.53;58.30
69225;DHT22;56333;51.306;17.056;2022-08-01T09:25:26;24.58;57.95
69225;DHT22;56333;51.306;17.056;2022-08-01T09:26:59;24.66;58.13
69225;DHT22;56333;51.306;17.056;2022-08-01T09:28:39;24.74;57.67
69225;DHT22;56333;51.306;17.056;2022-08-01T09:30:12;24.78;57.80
69225;DHT22;56333;51.306;17.056;2022-08-01T09:31:52;24.86;58.20
69225;DHT22;56333;51.306;17.056;2022-08-01T09:35:43;25.04;56.72
69225;DHT22;56333;51.306;17.056;2022-08-01T09:39:12;25.34;57.20
69225;DHT22;56333;51.306;17.056;2022-08-01T09:43:11;25.74;57.28
69225;DHT22;56333;51.306;17.056;2022-08-01T09:44:40;25.72;55.58
69225;DHT22;56333;51.306;17.056;2022-08-01T09:46:08;25.77;55.55
69225;DHT22;56333;51.306;17.056;2022-08-01T09:47:38;25.78;55.78
69225;DHT22;56333;51.306;17.056;2022-08-01T09:49:06;25.85;56.50
69225;DHT22;56333;51.306;17.056;2022-08-01T09:52:25;26.20;57.20
69225;DHT22;56333;51.306;17.056;2022-08-01T09:54:05;26.61;57.63
69225;DHT22;56333;51.306;17.056;2022-08-01T09:55:31;26.92;55.55
69225;DHT22;56333;51.306;17.056;2022-08-01T09:56:57;27.01;54.67
69225;DHT22;56333;51.306;17.056;2022-08-01T09:59:00;27.08;52.75
69225;DHT22;56333;51.306;17.056;2022-08-01T10:00:27;27.08;53.15
69225;DHT22;56333;51.306;17.056;2022-08-01T10:02:06;27.17;54.47
69225;DHT22;56333;51.306;17.056;2022-08-01T10:05:58;27.84;52.13
69225;DHT22;56333;51.306;17.056;2022-08-01T10:07:23;28.14;51.72
69225;DHT22;56333;51.306;17.056;2022-08-01T10:09:35;28.48;49.40
69225;DHT22;56333;51.306;17.056;2022-08-01T10:11:20;28.74;49.47
69225;DHT22;56333;51.306;17.056;2022-08-01T10:13:01;28.98;49.55
69225;DHT22;56333;51.306;17.056;2022-08-01T10:14:27;29.18;50.60
69225;DHT22;56333;51.306;17.056;2022-08-01T10:15:52;29.37;48.92
69225;DHT22;56333;51.306;17.056;2022-08-01T10:22:00;29.93;48.20
69225;DHT22;56333;51.306;17.056;2022-08-01T10:23:43;30.03;47.20
69225;DHT22;56333;51.306;17.056;2022-08-01T10:25:09;30.11;46.05
69225;DHT22;56333;51.306;17.056;2022-08-01T10:26:38;30.17;45.85
69225;DHT22;56333;51.306;17.056;2022-08-01T10:28:20;30.09;45.30
69225;DHT22;56333;51.306;17.056;2022-08-01T10:30:16;30.22;46.75
69225;DHT22;56333;51.306;17.056;2022-08-01T10:31:54;30.45;47.45
69225;DHT22;56333;51.306;17.056;2022-08-01T10:33:50;30.64;45.33
69225;DHT22;56333;51.306;17.056;2022-08-01T10:39:49;31.26;44.53
69225;DHT22;56333;51.306;17.056;2022-08-01T10:41:32;31.05;44.88
69225;DHT22;56333;51.306;17.056;2022-08-01T10:45:07;30.28;45.40
69225;DHT22;56333;51.306;17.056;2022-08-01T10:47:21;29.92;47.00
69225;DHT22;56333;51.306;17.056;2022-08-01T10:49:04;29.54;47.28
69225;DHT22;56333;51.306;17.056;2022-08-01T10:53:23;28.77;49.03
69225;DHT22;56333;51.306;17.056;2022-08-01T10:55:07;28.63;49.50
69225;DHT22;56333;51.306;17.056;2022-08-01T10:57:01;28.63;49.35
69225;DHT22;56333;51.306;17.056;2022-08-01T10:58:31;28.92;49.20
69225;DHT22;56333;51.306;17.056;2022-08-01T11:02:30;29.50;47.65
69225;DHT22;56333;51.306;17.056;2022-08-01T11:04:09;29.38;46.47
69225;DHT22;56333;51.306;17.056;2022-08-01T11:06:26;29.52;47.78
69225;DHT22;56333;51.306;17.056;2022-08-01T11:08:09;29.71;47.03
69225;DHT22;56333;51.306;17.056;2022-08-01T11:17:37;28.77;48.67
69225;DHT22;56333;51.306;17.056;2022-08-01T11:19:08;28.51;48.58
69225;DHT22;56333;51.306;17.056;2022-08-01T11:21:05;28.16;49.13
69225;DHT22;56333;51.306;17.056;2022-08-01T11:24:57;27.71;50.58
69225;DHT22;56333;51.306;17.056;2022-08-01T11:26:24;27.56;51.17
69225;DHT22;56333;51.306;17.056;2022-08-01T11:29:43;27.01;52.15
69225;DHT22;56333;51.306;17.056;2022-08-01T11:31:39;26.77;52.67
69225;DHT22;56333;51.306;17.056;2022-08-01T11:33:47;26.63;52.83
69225;DHT22;56333;51.306;17.056;2022-08-01T11:35:14;26.59;53.35
69225;DHT22;56333;51.306;17.056;2022-08-01T11:36:39;26.59;53.28
69225;DHT22;56333;51.306;17.056;2022-08-01T11:40:21;26.68;54.17
69225;DHT22;56333;51.306;17.056;2022-08-01T11:41:47;26.97;55.17
69225;DHT22;56333;51.306;17.056;2022-08-01T11:43:32;27.19;54.60
69225;DHT22;56333;51.306;17.056;2022-08-01T11:49:27;27.59;52.15
69225;DHT22;56333;51.306;17.056;2022-08-01T11:51:23;27.67;51.72
69225;DHT22;56333;51.306;17.056;2022-08-01T11:52:47;27.72;50.70
69225;DHT22;56333;51.306;17.056;2022-08-01T11:54:27;27.70;50.53
69225;DHT22;56333;51.306;17.056;2022-08-01T11:56:05;27.83;50.13
69225;DHT22;56333;51.306;17.056;2022-08-01T11:57:44;28.35;50.15
69225;DHT22;56333;51.306;17.056;2022-08-01T11:59:51;28.64;49.28
69225;DHT22;56333;51.306;17.056;2022-08-01T12:01:19;28.67;49.33
69225;DHT22;56333;51.306;17.056;2022-08-01T12:03:13;28.69;48.72
69225;DHT22;56333;51.306;17.056;2022-08-01T12:09:19;29.01;47.22
69225;DHT22;56333;51.306;17.056;2022-08-01T12:11:00;29.15;47.13
69225;DHT22;56333;51.306;17.056;2022-08-01T12:12:44;29.50;45.55
69225;DHT22;56333;51.306;17.056;2022-08-01T12:14:33;29.55;46.20
69225;DHT22;56333;51.306;17.056;2022-08-01T12:20:59;28.85;46.85
69225;DHT22;56333;51.306;17.056;2022-08-01T12:38:16;27.30;54.13
69225;DHT22;56333;51.306;17.056;2022-08-01T12:42:06;26.92;55.85
69225;DHT22;56333;51.306;17.056;2022-08-01T12:43:36;26.80;55.97
69225;DHT22;56333;51.306;17.056;2022-08-01T12:45:00;26.65;57.53
69225;DHT22;56333;51.306;17.056;2022-08-01T12:46:28;26.56;56.67
69225;DHT22;56333;51.306;17.056;2022-08-01T12:48:08;26.44;56.13
69225;DHT22;56333;51.306;17.056;2022-08-01T12:49:35;26.34;56.90
69225;DHT22;56333;51.306;17.056;2022-08-01T12:51:16;26.29;56.95
69225;DHT22;56333;51.306;17.056;2022-08-01T12:52:43;26.22;57.38
69225;DHT22;56333;51.306;17.056;2022-08-01T12:54:22;26.15;57.75
69225;DHT22;56333;51.306;17.056;2022-08-01T12:58:05;26.08;58.60
69225;DHT22;56333;51.306;17.056;2022-08-01T13:00:10;26.11;58.22
69225;DHT22;56333;51.306;17.056;2022-08-01T13:01:40;26.14;58.65
69225;DHT22;56333;51.306;17.056;2022-08-01T13:04:58;26.28;57.05
69225;DHT22;56333;51.306;17.056;2022-08-01T13:06:37;26.50;57.03
69225;DHT22;56333;51.306;17.056;2022-08-01T13:08:10;26.68;56.50
69225;DHT22;56333;51.306;17.056;2022-08-01T13:11:52;26.97;55.85
69225;DHT22;56333;51.306;17.056;2022-08-01T13:13:38;27.22;57.38
69225;DHT22;56333;51.306;17.056;2022-08-01T13:15:21;27.44;57.20
69225;DHT22;56333;51.306;17.056;2022-08-01T13:17:06;27.59;54.53
69225;DHT22;56333;51.306;17.056;2022-08-01T13:18:49;27.62;54.78
69225;DHT22;56333;51.306;17.056;2022-08-01T13:20:25;27.65;54.35
69225;DHT22;56333;51.306;17.056;2022-08-01T13:22:08;27.69;54.92
69225;DHT22;56333;51.306;17.056;2022-08-01T13:26:01;27.83;53.05
69225;DHT22;56333;51.306;17.056;2022-08-01T13:33:43;27.67;53.42
69225;DHT22;56333;51.306;17.056;2022-08-01T13:35:24;27.63;54.33
69225;DHT22;56333;51.306;17.056;2022-08-01T13:38:44;28.22;53.97
69225;DHT22;56333;51.306;17.056;2022-08-01T13:40:38;28.73;53.45
69225;DHT22;56333;51.306;17.056;2022-08-01T13:42:03;28.99;54.08
69225;DHT22;56333;51.306;17.056;2022-08-01T13:43:42;29.36;52.53
69225;DHT22;56333;51.306;17.056;2022-08-01T13:45:08;29.74;51.80
69225;DHT22;56333;51.306;17.056;2022-08-01T13:46:37;30.07;50.38
69225;DHT22;56333;51.306;17.056;2022-08-01T13:48:02;30.26;48.58
69225;DHT22;56333;51.306;17.056;2022-08-01T13:49:28;30.51;48.90
69225;DHT22;56333;51.306;17.056;2022-08-01T13:51:07;30.59;47.63
69225;DHT22;56333;51.306;17.056;2022-08-01T13:52:32;30.75;47.30
69225;DHT22;56333;51.306;17.056;2022-08-01T13:53:57;30.84;46.83
69225;DHT22;56333;51.306;17.056;2022-08-01T13:55:35;31.00;47.17
69225;DHT22;56333;51.306;17.056;2022-08-01T13:57:00;31.16;47.22
69225;DHT22;56333;51.306;17.056;2022-08-01T13:58:26;31.28;46.50
69225;DHT22;56333;51.306;17.056;2022-08-01T14:00:09;31.35;46.58
69225;DHT22;56333;51.306;17.056;2022-08-01T14:01:39;31.50;46.85
69225;DHT22;56333;51.306;17.056;2022-08-01T14:03:10;31.52;45.78
69225;DHT22;56333;51.306;17.056;2022-08-01T14:04:41;31.57;45.53
69225;DHT22;56333;51.306;17.056;2022-08-01T14:06:06;31.68;44.83
69225;DHT22;56333;51.306;17.056;2022-08-01T14:10:11;31.29;44.15
69225;DHT22;56333;51.306;17.056;2022-08-01T14:11:35;31.09;46.63
69225;DHT22;56333;51.306;17.056;2022-08-01T14:13:00;30.75;45.67
69225;DHT22;56333;51.306;17.056;2022-08-01T14:14:39;30.42;46.13
69225;DHT22;56333;51.306;17.056;2022-08-01T14:16:20;29.83;47.15
69225;DHT22;56333;51.306;17.056;2022-08-01T14:17:45;29.59;47.88
69225;DHT22;56333;51.306;17.056;2022-08-01T14:19:24;29.25;48.67
69225;DHT22;56333;51.306;17.056;2022-08-01T14:20:48;29.03;49.17
69225;DHT22;56333;51.306;17.056;2022-08-01T14:24:07;28.67;50.15
69225;DHT22;56333;51.306;17.056;2022-08-01T14:25:46;28.58;50.50
69225;DHT22;56333;51.306;17.056;2022-08-01T14:29:32;28.80;51.33
69225;DHT22;56333;51.306;17.056;2022-08-01T14:30:59;28.76;50.60
69225;DHT22;56333;51.306;17.056;2022-08-01T14:32:23;28.70;50.20
69225;DHT22;56333;51.306;17.056;2022-08-01T14:33:48;28.70;50.10
69225;DHT22;56333;51.306;17.056;2022-08-01T14:37:09;28.85;49.28
69225;DHT22;56333;51.306;17.056;2022-08-01T14:38:34;28.77;48.13
69225;DHT22;56333;51.306;17.056;2022-08-01T14:40:14;28.77;48.75
69225;DHT22;56333;51.306;17.056;2022-08-01T14:41:39;28.83;48.38
69225;DHT22;56333;51.306;17.056;2022-08-01T14:43:39;28.92;48.53
69225;DHT22;56333;51.306;17.056;2022-08-01T14:45:08;28.91;48.80
69225;DHT22;56333;51.306;17.056;2022-08-01T14:46:34;28.84;48.35
69225;DHT22;56333;51.306;17.056;2022-08-01T14:47:58;28.77;47.75
69225;DHT22;56333;51.306;17.056;2022-08-01T14:49:52;28.81;48.67
69225;DHT22;56333;51.306;17.056;2022-08-01T14:53:55;29.25;48.17
69225;DHT22;56333;51.306;17.056;2022-08-01T14:55:23;29.56;47.97
69225;DHT22;56333;51.306;17.056;2022-08-01T14:57:06;29.79;47.15
69225;DHT22;56333;51.306;17.056;2022-08-01T14:58:31;29.85;46.90
69225;DHT22;56333;51.306;17.056;2022-08-01T14:59:55;29.69;46.38
69225;DHT22;56333;51.306;17.056;2022-08-01T15:01:20;29.57;46.78
69225;DHT22;56333;51.306;17.056;2022-08-01T15:07:01;29.12;48.20
69225;DHT22;56333;51.306;17.056;2022-08-01T15:08:40;29.06;48.20
69225;DHT22;56333;51.306;17.056;2022-08-01T15:16:46;29.36;47.72
69225;DHT22;56333;51.306;17.056;2022-08-01T15:18:28;29.48;47.50
69225;DHT22;56333;51.306;17.056;2022-08-01T15:20:09;29.46;47.75
69225;DHT22;56333;51.306;17.056;2022-08-01T15:21:34;29.58;47.63
69225;DHT22;56333;51.306;17.056;2022-08-01T15:22:59;29.66;47.38
69225;DHT22;56333;51.306;17.056;2022-08-01T15:25:09;29.80;46.65
69225;DHT22;56333;51.306;17.056;2022-08-01T15:26:48;29.83;46.47
69225;DHT22;56333;51.306;17.056;2022-08-01T15:28:17;29.83;46.25
69225;DHT22;56333;51.306;17.056;2022-08-01T15:29:42;29.90;46.28
69225;DHT22;56333;51.306;17.056;2022-08-01T15:31:21;29.98;46.83
69225;DHT22;56333;51.306;17.056;2022-08-01T15:32:48;29.98;46.83
69225;DHT22;56333;51.306;17.056;2022-08-01T15:34:30;29.94;47.05
69225;DHT22;56333;51.306;17.056;2022-08-01T15:36:26;29.63;48.13
69225;DHT22;56333;51.306;17.056;2022-08-01T15:38:22;29.60;48.78
69225;DHT22;56333;51.306;17.056;2022-08-01T15:40:01;29.57;48.78
69225;DHT22;56333;51.306;17.056;2022-08-01T15:41:26;29.58;48.83
69225;DHT22;56333;51.306;17.056;2022-08-01T15:45:03;29.20;49.08
69225;DHT22;56333;51.306;17.056;2022-08-01T15:46:43;28.85;49.55
69225;DHT22;56333;51.306;17.056;2022-08-01T15:48:08;28.49;50.60
69225;DHT22;56333;51.306;17.056;2022-08-01T15:49:47;28.20;50.95
69225;DHT22;56333;51.306;17.056;2022-08-01T15:51:25;27.95;51.35
69225;DHT22;56333;51.306;17.056;2022-08-01T15:53:21;27.76;51.83
69225;DHT22;56333;51.306;17.056;2022-08-01T15:55:03;27.50;52.60
69225;DHT22;56333;51.306;17.056;2022-08-01T15:56:43;27.18;53.78
69225;DHT22;56333;51.306;17.056;2022-08-01T15:58:22;27.22;53.00
69225;DHT22;56333;51.306;17.056;2022-08-01T16:00:05;27.30;53.45
69225;DHT22;56333;51.306;17.056;2022-08-01T16:01:46;27.16;54.33
69225;DHT22;56333;51.306;17.056;2022-08-01T16:03:29;27.01;53.75
69225;DHT22;56333;51.306;17.056;2022-08-01T16:06:35;26.97;54.13
69225;DHT22;56333;51.306;17.056;2022-08-01T16:10:08;26.86;54.90
69225;DHT22;56333;51.306;17.056;2022-08-01T16:11:34;26.82;54.33
69225;DHT22;56333;51.306;17.056;2022-08-01T16:13:17;26.71;54.20
69225;DHT22;56333;51.306;17.056;2022-08-01T16:14:56;26.57;54.22
69225;DHT22;56333;51.306;17.056;2022-08-01T16:16:35;26.42;54.72
69225;DHT22;56333;51.306;17.056;2022-08-01T16:18:13;26.24;55.53
69225;DHT22;56333;51.306;17.056;2022-08-01T16:19:38;26.12;55.03
69225;DHT22;56333;51.306;17.056;2022-08-01T16:21:17;25.94;56.38
69225;DHT22;56333;51.306;17.056;2022-08-01T16:22:42;25.79;56.28
69225;DHT22;56333;51.306;17.056;2022-08-01T16:24:07;25.66;56.40
69225;DHT22;56333;51.306;17.056;2022-08-01T16:25:49;25.53;56.65
69225;DHT22;56333;51.306;17.056;2022-08-01T16:29:21;25.22;57.28
69225;DHT22;56333;51.306;17.056;2022-08-01T16:31:18;25.10;58.20
69225;DHT22;56333;51.306;17.056;2022-08-01T16:32:42;24.95;60.58
69225;DHT22;56333;51.306;17.056;2022-08-01T16:34:22;24.86;59.17
69225;DHT22;56333;51.306;17.056;2022-08-01T16:35:46;24.82;59.13
69225;DHT22;56333;51.306;17.056;2022-08-01T16:37:11;24.76;58.22
69225;DHT22;56333;51.306;17.056;2022-08-01T16:38:53;24.71;59.72
69225;DHT22;56333;51.306;17.056;2022-08-01T16:40:19;24.65;58.85
69225;DHT22;56333;51.306;17.056;2022-08-01T16:41:44;24.60;59.42
69225;DHT22;56333;51.306;17.056;2022-08-01T16:43:11;24.55;59.60
69225;DHT22;56333;51.306;17.056;2022-08-01T16:44:49;24.51;60.17
69225;DHT22;56333;51.306;17.056;2022-08-01T16:46:28;24.42;62.55